sensor_id;sensor_type;location;lat;lon;timestamp;temperature;humidity
76607;DHT22;65498;50.916;4.698;2023-05-10T00:01:32;22.50;59.60
76607;DHT22;65498;50.916;4.698;2023-05-10T00:04:00;22.50;59.40
76607;DHT22;65498;50.916;4.698;2023-05-10T00:06:28;22.40;59.60
76607;DHT22;65498;50.916;4.698;2023-05-10T00:08:55;22.40;59.90
76607;DHT22;65498;50.916;4.698;2023-05-10T00:11:23;22.30;59.90
76607;DHT22;65498;50.916;4.698;2023-05-10T00:13:50;22.30;60.10
76607;DHT22;65498;50.916;4.698;2023-05-10T00:16:18;22.30;60.10
76607;DHT22;65498;50.916;4.698;2023-05-10T00:18:45;22.30;59.80
76607;DHT22;65498;50.916;4.698;2023-05-10T00:21:13;22.40;60.20
76607;DHT22;65498;50.916;4.698;2023-05-10T00:23:41;22.40;59.50
76607;DHT22;65498;50.916;4.698;2023-05-10T00:26:08;22.40;59.50
76607;DHT22;65498;50.916;4.698;2023-05-10T00:28:36;22.40;59.40
76607;DHT22;65498;50.916;4.698;2023-05-10T00:31:03;22.30;59.60
76607;DHT22;65498;50.916;4.698;2023-05-10T00:33:31;22.20;59.60
76607;DHT22;65498;50.916;4.698;2023-05-10T00:35:58;22.30;59.70
76607;DHT22;65498;50.916;4.698;2023-05-10T00:38:45;22.20;59.80
76607;DHT22;65498;50.916;4.698;2023-05-10T00:41:13;22.20;59.90
76607;DHT22;65498;50.916;4.698;2023-05-10T00:43:40;22.10;60.00
76607;DHT22;65498;50.916;4.698;2023-05-10T00:46:08;22.10;60.00
76607;DHT22;65498;50.916;4.698;2023-05-10T00:48:35;22.10;59.90
76607;DHT22;65498;50.916;4.698;2023-05-10T00:51:03;22.20;59.60
76607;DHT22;65498;50.916;4.698;2023-05-10T00:53:31;22.20;59.70
76607;DHT22;65498;50.916;4.698;2023-05-10T00:55:59;22.20;59.70
76607;DHT22;65498;50.916;4.698;2023-05-10T00:58:28;22.10;59.80
76607;DHT22;65498;50.916;4.698;2023-05-10T01:00:57;22.10;59.70
76607;DHT22;65498;50.916;4.698;2023-05-10T01:03:26;22.10;59.70
76607;DHT22;65498;50.916;4.698;2023-05-10T01:05:53;22.20;59.50
76607;DHT22;65498;50.916;4.698;2023-05-10T01:08:22;22.20;60.40
76607;DHT22;65498;50.916;4.698;2023-05-10T01:10:50;22.10;59.60
76607;DHT22;65498;50.916;4.698;2023-05-10T01:13:42;22.20;59.50
76607;DHT22;65498;50.916;4.698;2023-05-10T01:15:49;22.20;59.50
76607;DHT22;65498;50.916;4.698;2023-05-10T01:18:18;22.10;59.60
76607;DHT22;65498;50.916;4.698;2023-05-10T01:20:52;22.10;59.50
76607;DHT22;65498;50.916;4.698;2023-05-10T01:34:35;22.20;59.20
76607;DHT22;65498;50.916;4.698;2023-05-10T01:37:09;22.20;59.20
76607;DHT22;65498;50.916;4.698;2023-05-10T01:40:13;22.10;59.40
76607;DHT22;65498;50.916;4.698;2023-05-10T01:42:50;22.10;59.20
76607;DHT22;65498;50.916;4.698;2023-05-10T01:45:24;22.20;59.10
76607;DHT22;65498;50.916;4.698;2023-05-10T01:47:54;22.10;59.10
76607;DHT22;65498;50.916;4.698;2023-05-10T01:50:23;22.10;59.30
76607;DHT22;65498;50.916;4.698;2023-05-10T01:52:54;22.10;59.10
76607;DHT22;65498;50.916;4.698;2023-05-10T01:55:26;22.10;59.20
76607;DHT22;65498;50.916;4.698;2023-05-10T01:58:11;22.10;59.20
76607;DHT22;65498;50.916;4.698;2023-05-10T02:00:42;22.10;59.30
76607;DHT22;65498;50.916;4.698;2023-05-10T02:03:10;22.10;59.10
76607;DHT22;65498;50.916;4.698;2023-05-10T02:05:40;22.10;59.10
76607;DHT22;65498;50.916;4.698;2023-05-10T02:08:08;22.10;59.00
76607;DHT22;65498;50.916;4.698;2023-05-10T02:10:37;22.20;59.10
76607;DHT22;65498;50.916;4.698;2023-05-10T02:13:07;22.10;59.10
76607;DHT22;65498;50.916;4.698;2023-05-10T02:15:37;22.10;59.00
76607;DHT22;65498;50.916;4.698;2023-05-10T02:18:06;22.10;59.10
76607;DHT22;65498;50.916;4.698;2023-05-10T02:20:35;22.10;58.90
76607;DHT22;65498;50.916;4.698;2023-05-10T02:23:04;22.10;59.20
76607;DHT22;65498;50.916;4.698;2023-05-10T02:25:33;22.00;58.90
76607;DHT22;65498;50.916;4.698;2023-05-10T02:28:02;22.00;59.20
76607;DHT22;65498;50.916;4.698;2023-05-10T02:30:33;22.10;59.10
76607;DHT22;65498;50.916;4.698;2023-05-10T02:33:02;22.10;59.00
76607;DHT22;65498;50.916;4.698;2023-05-10T02:35:32;22.10;58.80
76607;DHT22;65498;50.916;4.698;2023-05-10T02:38:01;22.00;58.90
76607;DHT22;65498;50.916;4.698;2023-05-10T02:40:29;22.00;58.90
76607;DHT22;65498;50.916;4.698;2023-05-10T02:42:58;22.00;59.00
76607;DHT22;65498;50.916;4.698;2023-05-10T02:45:29;22.10;59.10
76607;DHT22;65498;50.916;4.698;2023-05-10T02:47:57;22.10;58.90
76607;DHT22;65498;50.916;4.698;2023-05-10T02:50:27;22.00;58.90
76607;DHT22;65498;50.916;4.698;2023-05-10T02:52:59;22.00;59.20
76607;DHT22;65498;50.916;4.698;2023-05-10T02:55:28;22.00;59.00
76607;DHT22;65498;50.916;4.698;2023-05-10T02:58:00;22.00;59.10
76607;DHT22;65498;50.916;4.698;2023-05-10T03:00:27;22.00;59.30
76607;DHT22;65498;50.916;4.698;2023-05-10T03:02:55;22.00;59.20
76607;DHT22;65498;50.916;4.698;2023-05-10T03:05:22;22.00;59.00
76607;DHT22;65498;50.916;4.698;2023-05-10T03:07:50;22.00;59.20
76607;DHT22;65498;50.916;4.698;2023-05-10T03:10:18;22.00;59.00
76607;DHT22;65498;50.916;4.698;2023-05-10T03:16:08;21.90;59.20
76607;DHT22;65498;50.916;4.698;2023-05-10T03:18:50;22.00;59.20
76607;DHT22;65498;50.916;4.698;2023-05-10T03:21:14;22.00;59.30
76607;DHT22;65498;50.916;4.698;2023-05-10T03:23:51;21.90;59.20
76607;DHT22;65498;50.916;4.698;2023-05-10T03:26:24;21.90;59.30
76607;DHT22;65498;50.916;4.698;2023-05-10T03:28:52;21.90;59.30
76607;DHT22;65498;50.916;4.698;2023-05-10T03:31:21;21.90;59.40
76607;DHT22;65498;50.916;4.698;2023-05-10T03:33:50;21.90;59.40
76607;DHT22;65498;50.916;4.698;2023-05-10T03:36:18;21.90;59.30
76607;DHT22;65498;50.916;4.698;2023-05-10T03:38:46;21.90;59.20
76607;DHT22;65498;50.916;4.698;2023-05-10T03:41:14;21.90;59.40
76607;DHT22;65498;50.916;4.698;2023-05-10T03:43:41;21.80;59.30
76607;DHT22;65498;50.916;4.698;2023-05-10T03:46:09;21.90;59.40
76607;DHT22;65498;50.916;4.698;2023-05-10T03:48:36;21.90;59.40
76607;DHT22;65498;50.916;4.698;2023-05-10T03:51:04;21.90;59.30
76607;DHT22;65498;50.916;4.698;2023-05-10T03:53:31;21.90;59.30
76607;DHT22;65498;50.916;4.698;2023-05-10T03:55:59;21.90;59.20
76607;DHT22;65498;50.916;4.698;2023-05-10T03:58:27;21.90;59.30
76607;DHT22;65498;50.916;4.698;2023-05-10T04:00:54;21.90;59.30
76607;DHT22;65498;50.916;4.698;2023-05-10T04:03:22;21.90;59.40
76607;DHT22;65498;50.916;4.698;2023-05-10T04:06:00;21.90;59.40
76607;DHT22;65498;50.916;4.698;2023-05-10T04:08:20;21.90;59.50
76607;DHT22;65498;50.916;4.698;2023-05-10T04:10:48;21.80;59.50
76607;DHT22;65498;50.916;4.698;2023-05-10T04:13:15;21.80;59.60
76607;DHT22;65498;50.916;4.698;2023-05-10T04:15:43;21.80;59.50
76607;DHT22;65498;50.916;4.698;2023-05-10T04:18:11;21.70;59.80
76607;DHT22;65498;50.916;4.698;2023-05-10T04:20:38;21.70;59.70
76607;DHT22;65498;50.916;4.698;2023-05-10T04:23:06;21.80;59.70
76607;DHT22;65498;50.916;4.698;2023-05-10T04:25:34;21.80;59.50
76607;DHT22;65498;50.916;4.698;2023-05-10T04:28:02;21.80;59.40
76607;DHT22;65498;50.916;4.698;2023-05-10T04:30:30;21.70;59.60
76607;DHT22;65498;50.916;4.698;2023-05-10T04:32:57;21.70;59.60
76607;DHT22;65498;50.916;4.698;2023-05-10T04:35:24;21.70;59.80
76607;DHT22;65498;50.916;4.698;2023-05-10T04:37:52;21.70;59.70
76607;DHT22;65498;50.916;4.698;2023-05-10T04:40:20;21.80;59.60
76607;DHT22;65498;50.916;4.698;2023-05-10T04:42:47;21.70;59.40
76607;DHT22;65498;50.916;4.698;2023-05-10T04:45:15;21.70;59.60
76607;DHT22;65498;50.916;4.698;2023-05-10T04:47:43;21.70;59.50
76607;DHT22;65498;50.916;4.698;2023-05-10T04:50:10;21.70;59.50
76607;DHT22;65498;50.916;4.698;2023-05-10T04:52:57;21.80;59.50
76607;DHT22;65498;50.916;4.698;2023-05-10T04:55:24;21.70;59.50
76607;DHT22;65498;50.916;4.698;2023-05-10T04:57:53;21.60;59.70
76607;DHT22;65498;50.916;4.698;2023-05-10T05:00:23;21.70;59.50
76607;DHT22;65498;50.916;4.698;2023-05-10T05:02:51;21.70;59.30
76607;DHT22;65498;50.916;4.698;2023-05-10T05:05:18;21.80;59.30
76607;DHT22;65498;50.916;4.698;2023-05-10T05:07:46;21.70;59.30
76607;DHT22;65498;50.916;4.698;2023-05-10T05:10:13;21.70;59.30
76607;DHT22;65498;50.916;4.698;2023-05-10T05:12:41;21.70;59.40
76607;DHT22;65498;50.916;4.698;2023-05-10T05:15:09;21.70;59.60
76607;DHT22;65498;50.916;4.698;2023-05-10T05:17:37;21.70;60.20
76607;DHT22;65498;50.916;4.698;2023-05-10T05:20:05;21.70;59.40
76607;DHT22;65498;50.916;4.698;2023-05-10T05:22:33;21.60;59.50
76607;DHT22;65498;50.916;4.698;2023-05-10T05:25:01;21.70;59.50
76607;DHT22;65498;50.916;4.698;2023-05-10T05:27:29;21.70;59.70
76607;DHT22;65498;50.916;4.698;2023-05-10T05:29:58;21.70;59.50
76607;DHT22;65498;50.916;4.698;2023-05-10T05:32:25;21.70;59.40
76607;DHT22;65498;50.916;4.698;2023-05-10T05:34:53;21.70;60.20
76607;DHT22;65498;50.916;4.698;2023-05-10T05:37:21;21.70;59.20
76607;DHT22;65498;50.916;4.698;2023-05-10T05:39:49;21.70;59.30
76607;DHT22;65498;50.916;4.698;2023-05-10T05:42:16;21.70;59.30
76607;DHT22;65498;50.916;4.698;2023-05-10T05:44:45;21.70;59.30
76607;DHT22;65498;50.916;4.698;2023-05-10T05:47:12;21.70;59.40
76607;DHT22;65498;50.916;4.698;2023-05-10T05:49:40;21.70;59.60
76607;DHT22;65498;50.916;4.698;2023-05-10T05:52:07;21.70;59.50
76607;DHT22;65498;50.916;4.698;2023-05-10T05:54:35;21.70;60.40
76607;DHT22;65498;50.916;4.698;2023-05-10T05:57:02;21.60;59.90
76607;DHT22;65498;50.916;4.698;2023-05-10T05:59:30;21.60;59.80
76607;DHT22;65498;50.916;4.698;2023-05-10T06:01:57;21.60;59.60
76607;DHT22;65498;50.916;4.698;2023-05-10T06:04:25;21.60;59.60
76607;DHT22;65498;50.916;4.698;2023-05-10T06:06:52;21.60;59.70
76607;DHT22;65498;50.916;4.698;2023-05-10T06:09:20;21.60;59.60
76607;DHT22;65498;50.916;4.698;2023-05-10T06:11:47;21.60;59.70
76607;DHT22;65498;50.916;4.698;2023-05-10T06:14:15;21.60;60.20
76607;DHT22;65498;50.916;4.698;2023-05-10T06:16:42;21.50;61.10
76607;DHT22;65498;50.916;4.698;2023-05-10T06:19:10;21.50;60.90
76607;DHT22;65498;50.916;4.698;2023-05-10T06:21:38;21.50;60.50
76607;DHT22;65498;50.916;4.698;2023-05-10T06:24:06;21.50;60.60
76607;DHT22;65498;50.916;4.698;2023-05-10T06:26:33;21.50;60.20
76607;DHT22;65498;50.916;4.698;2023-05-10T06:29:01;21.50;60.20
76607;DHT22;65498;50.916;4.698;2023-05-10T06:31:29;21.50;60.50
76607;DHT22;65498;50.916;4.698;2023-05-10T06:33:56;21.50;60.40
76607;DHT22;65498;50.916;4.698;2023-05-10T06:36:24;21.50;60.10
76607;DHT22;65498;50.916;4.698;2023-05-10T06:38:52;21.50;60.00
76607;DHT22;65498;50.916;4.698;2023-05-10T06:41:20;21.50;60.10
76607;DHT22;65498;50.916;4.698;2023-05-10T06:43:48;21.50;60.10
76607;DHT22;65498;50.916;4.698;2023-05-10T06:46:15;21.50;60.10
76607;DHT22;65498;50.916;4.698;2023-05-10T06:48:43;21.50;60.20
76607;DHT22;65498;50.916;4.698;2023-05-10T06:51:11;21.40;60.60
76607;DHT22;65498;50.916;4.698;2023-05-10T06:53:38;21.50;62.00
76607;DHT22;65498;50.916;4.698;2023-05-10T06:56:06;21.50;61.90
76607;DHT22;65498;50.916;4.698;2023-05-10T06:58:33;21.60;62.40
76607;DHT22;65498;50.916;4.698;2023-05-10T07:01:04;21.60;62.20
76607;DHT22;65498;50.916;4.698;2023-05-10T07:03:32;21.60;61.90
76607;DHT22;65498;50.916;4.698;2023-05-10T07:06:03;21.60;61.90
76607;DHT22;65498;50.916;4.698;2023-05-10T07:08:32;21.70;61.90
76607;DHT22;65498;50.916;4.698;2023-05-10T07:11:01;21.70;61.60
76607;DHT22;65498;50.916;4.698;2023-05-10T07:13:32;21.70;61.60
76607;DHT22;65498;50.916;4.698;2023-05-10T07:16:00;21.80;61.30
76607;DHT22;65498;50.916;4.698;2023-05-10T07:18:28;21.80;61.20
76607;DHT22;65498;50.916;4.698;2023-05-10T07:20:57;21.80;61.10
76607;DHT22;65498;50.916;4.698;2023-05-10T07:23:24;21.80;61.10
76607;DHT22;65498;50.916;4.698;2023-05-10T07:25:52;21.80;61.00
76607;DHT22;65498;50.916;4.698;2023-05-10T07:28:20;21.80;61.10
76607;DHT22;65498;50.916;4.698;2023-05-10T07:30:48;21.80;61.10
76607;DHT22;65498;50.916;4.698;2023-05-10T07:33:15;21.80;61.10
76607;DHT22;65498;50.916;4.698;2023-05-10T07:35:43;21.80;61.10
76607;DHT22;65498;50.916;4.698;2023-05-10T07:38:11;21.80;61.20
76607;DHT22;65498;50.916;4.698;2023-05-10T07:40:39;21.80;61.20
76607;DHT22;65498;50.916;4.698;2023-05-10T07:43:07;21.80;61.00
76607;DHT22;65498;50.916;4.698;2023-05-10T07:45:34;21.80;61.00
76607;DHT22;65498;50.916;4.698;2023-05-10T07:48:02;21.80;61.10
76607;DHT22;65498;50.916;4.698;2023-05-10T07:50:30;21.80;61.10
76607;DHT22;65498;50.916;4.698;2023-05-10T07:52:57;21.80;60.90
76607;DHT22;65498;50.916;4.698;2023-05-10T07:55:25;21.80;61.00
76607;DHT22;65498;50.916;4.698;2023-05-10T07:57:52;21.80;61.00
76607;DHT22;65498;50.916;4.698;2023-05-10T08:00:20;21.80;60.90
76607;DHT22;65498;50.916;4.698;2023-05-10T08:02:48;21.80;60.90
76607;DHT22;65498;50.916;4.698;2023-05-10T08:05:15;21.80;61.00
76607;DHT22;65498;50.916;4.698;2023-05-10T08:07:43;21.80;60.90
76607;DHT22;65498;50.916;4.698;2023-05-10T08:10:11;21.80;61.00
76607;DHT22;65498;50.916;4.698;2023-05-10T08:12:39;21.80;61.00
76607;DHT22;65498;50.916;4.698;2023-05-10T08:15:07;21.80;60.80
76607;DHT22;65498;50.916;4.698;2023-05-10T08:17:35;21.90;60.80
76607;DHT22;65498;50.916;4.698;2023-05-10T08:20:03;21.80;60.70
76607;DHT22;65498;50.916;4.698;2023-05-10T08:22:30;21.80;60.70
76607;DHT22;65498;50.916;4.698;2023-05-10T08:24:58;21.80;61.70
76607;DHT22;65498;50.916;4.698;2023-05-10T08:27:25;21.80;61.50
76607;DHT22;65498;50.916;4.698;2023-05-10T08:29:53;21.70;61.00
76607;DHT22;65498;50.916;4.698;2023-05-10T08:32:20;21.60;60.90
76607;DHT22;65498;50.916;4.698;2023-05-10T08:34:48;21.60;61.20
76607;DHT22;65498;50.916;4.698;2023-05-10T08:37:15;21.70;61.10
76607;DHT22;65498;50.916;4.698;2023-05-10T08:39:43;21.70;60.60
76607;DHT22;65498;50.916;4.698;2023-05-10T08:42:12;21.80;60.50
76607;DHT22;65498;50.916;4.698;2023-05-10T08:44:42;21.80;60.30
76607;DHT22;65498;50.916;4.698;2023-05-10T08:47:10;21.80;60.30
76607;DHT22;65498;50.916;4.698;2023-05-10T08:49:39;21.80;60.10
76607;DHT22;65498;50.916;4.698;2023-05-10T08:52:07;21.80;60.10
76607;DHT22;65498;50.916;4.698;2023-05-10T08:54:35;21.80;59.90
76607;DHT22;65498;50.916;4.698;2023-05-10T08:57:03;21.80;59.90
76607;DHT22;65498;50.916;4.698;2023-05-10T08:59:31;21.80;59.80
76607;DHT22;65498;50.916;4.698;2023-05-10T09:01:59;21.80;59.90
76607;DHT22;65498;50.916;4.698;2023-05-10T09:04:28;21.80;59.80
76607;DHT22;65498;50.916;4.698;2023-05-10T09:06:56;21.80;59.70
76607;DHT22;65498;50.916;4.698;2023-05-10T09:09:25;21.80;59.70
76607;DHT22;65498;50.916;4.698;2023-05-10T09:11:54;21.80;59.70
76607;DHT22;65498;50.916;4.698;2023-05-10T09:14:23;21.80;59.90
76607;DHT22;65498;50.916;4.698;2023-05-10T09:16:52;21.80;60.00
76607;DHT22;65498;50.916;4.698;2023-05-10T09:19:20;21.80;60.00
76607;DHT22;65498;50.916;4.698;2023-05-10T09:21:49;21.80;60.10
76607;DHT22;65498;50.916;4.698;2023-05-10T09:24:17;21.80;60.00
76607;DHT22;65498;50.916;4.698;2023-05-10T09:26:48;21.90;60.10
76607;DHT22;65498;50.916;4.698;2023-05-10T09:29:15;21.80;60.20
76607;DHT22;65498;50.916;4.698;2023-05-10T09:31:49;21.90;60.20
76607;DHT22;65498;50.916;4.698;2023-05-10T09:34:21;21.90;60.20
76607;DHT22;65498;50.916;4.698;2023-05-10T09:36:57;21.90;60.10
76607;DHT22;65498;50.916;4.698;2023-05-10T09:39:34;21.80;60.10
76607;DHT22;65498;50.916;4.698;2023-05-10T09:42:07;21.90;60.10
76607;DHT22;65498;50.916;4.698;2023-05-10T09:44:36;21.90;60.10
76607;DHT22;65498;50.916;4.698;2023-05-10T09:47:04;21.90;60.20
76607;DHT22;65498;50.916;4.698;2023-05-10T09:49:32;21.90;60.20
76607;DHT22;65498;50.916;4.698;2023-05-10T09:52:04;21.90;60.10
76607;DHT22;65498;50.916;4.698;2023-05-10T09:54:32;21.90;60.00
76607;DHT22;65498;50.916;4.698;2023-05-10T09:57:01;21.90;60.00
76607;DHT22;65498;50.916;4.698;2023-05-10T09:59:29;21.90;60.70
76607;DHT22;65498;50.916;4.698;2023-05-10T10:01:58;21.90;59.90
76607;DHT22;65498;50.916;4.698;2023-05-10T10:04:27;21.90;60.80
76607;DHT22;65498;50.916;4.698;2023-05-10T10:07:02;21.90;60.40
76607;DHT22;65498;50.916;4.698;2023-05-10T10:09:30;21.90;60.60
76607;DHT22;65498;50.916;4.698;2023-05-10T10:11:58;21.90;61.00
76607;DHT22;65498;50.916;4.698;2023-05-10T10:14:26;21.90;60.70
76607;DHT22;65498;50.916;4.698;2023-05-10T10:16:54;21.90;60.80
76607;DHT22;65498;50.916;4.698;2023-05-10T10:19:22;21.90;60.70
76607;DHT22;65498;50.916;4.698;2023-05-10T10:21:50;21.90;60.60
76607;DHT22;65498;50.916;4.698;2023-05-10T10:24:18;21.90;60.40
76607;DHT22;65498;50.916;4.698;2023-05-10T10:26:46;21.90;60.10
76607;DHT22;65498;50.916;4.698;2023-05-10T10:29:34;21.90;60.60
76607;DHT22;65498;50.916;4.698;2023-05-10T10:32:37;21.90;60.40
76607;DHT22;65498;50.916;4.698;2023-05-10T10:35:03;21.80;60.40
76607;DHT22;65498;50.916;4.698;2023-05-10T10:37:44;21.80;61.10
76607;DHT22;65498;50.916;4.698;2023-05-10T10:40:32;21.90;60.30
76607;DHT22;65498;50.916;4.698;2023-05-10T10:43:22;21.80;60.20
76607;DHT22;65498;50.916;4.698;2023-05-10T10:46:12;21.90;60.30
76607;DHT22;65498;50.916;4.698;2023-05-10T10:48:41;21.80;60.20
76607;DHT22;65498;50.916;4.698;2023-05-10T10:51:10;21.80;60.30
76607;DHT22;65498;50.916;4.698;2023-05-10T10:53:40;21.80;60.10
76607;DHT22;65498;50.916;4.698;2023-05-10T10:56:14;21.80;60.10
76607;DHT22;65498;50.916;4.698;2023-05-10T10:58:40;21.80;60.00
76607;DHT22;65498;50.916;4.698;2023-05-10T11:01:16;21.80;59.90
76607;DHT22;65498;50.916;4.698;2023-05-10T11:06:35;21.90;59.90
76607;DHT22;65498;50.916;4.698;2023-05-10T11:09:08;21.90;59.90
76607;DHT22;65498;50.916;4.698;2023-05-10T11:11:48;21.90;59.90
76607;DHT22;65498;50.916;4.698;2023-05-10T11:14:11;21.90;59.80
76607;DHT22;65498;50.916;4.698;2023-05-10T11:16:43;21.90;59.90
76607;DHT22;65498;50.916;4.698;2023-05-10T11:19:15;21.90;59.90
76607;DHT22;65498;50.916;4.698;2023-05-10T11:21:51;21.90;59.90
76607;DHT22;65498;50.916;4.698;2023-05-10T11:24:22;21.90;59.90
76607;DHT22;65498;50.916;4.698;2023-05-10T11:26:50;22.00;60.10
76607;DHT22;65498;50.916;4.698;2023-05-10T11:29:18;21.90;60.20
76607;DHT22;65498;50.916;4.698;2023-05-10T11:31:47;21.90;60.10
76607;DHT22;65498;50.916;4.698;2023-05-10T11:34:26;21.90;60.10
76607;DHT22;65498;50.916;4.698;2023-05-10T11:36:56;21.80;60.20
76607;DHT22;65498;50.916;4.698;2023-05-10T11:39:28;21.90;60.10
76607;DHT22;65498;50.916;4.698;2023-05-10T11:41:57;21.90;60.20
76607;DHT22;65498;50.916;4.698;2023-05-10T11:44:29;21.90;60.20
76607;DHT22;65498;50.916;4.698;2023-05-10T11:47:01;21.80;60.40
76607;DHT22;65498;50.916;4.698;2023-05-10T11:49:29;21.90;60.30
76607;DHT22;65498;50.916;4.698;2023-05-10T11:52:06;21.80;60.30
76607;DHT22;65498;50.916;4.698;2023-05-10T11:54:34;21.90;60.60
76607;DHT22;65498;50.916;4.698;2023-05-10T11:57:02;21.90;60.30
76607;DHT22;65498;50.916;4.698;2023-05-10T11:59:30;21.90;60.30
76607;DHT22;65498;50.916;4.698;2023-05-10T12:01:58;21.80;60.40
76607;DHT22;65498;50.916;4.698;2023-05-10T12:04:27;21.90;60.50
76607;DHT22;65498;50.916;4.698;2023-05-10T12:06:55;21.80;60.70
76607;DHT22;65498;50.916;4.698;2023-05-10T12:09:23;21.80;60.50
76607;DHT22;65498;50.916;4.698;2023-05-10T12:11:55;21.90;60.60
76607;DHT22;65498;50.916;4.698;2023-05-10T12:14:22;21.90;60.60
76607;DHT22;65498;50.916;4.698;2023-05-10T12:16:50;21.80;60.60
76607;DHT22;65498;50.916;4.698;2023-05-10T12:19:19;21.80;60.60
76607;DHT22;65498;50.916;4.698;2023-05-10T12:21:47;21.80;60.70
76607;DHT22;65498;50.916;4.698;2023-05-10T12:24:15;21.80;61.40
76607;DHT22;65498;50.916;4.698;2023-05-10T12:26:45;21.90;60.70
76607;DHT22;65498;50.916;4.698;2023-05-10T12:29:16;21.80;60.70
76607;DHT22;65498;50.916;4.698;2023-05-10T12:31:52;21.90;60.80
76607;DHT22;65498;50.916;4.698;2023-05-10T12:34:24;21.80;60.80
76607;DHT22;65498;50.916;4.698;2023-05-10T12:36:53;21.90;60.90
76607;DHT22;65498;50.916;4.698;2023-05-10T12:39:21;21.90;61.60
76607;DHT22;65498;50.916;4.698;2023-05-10T12:41:48;21.80;61.40
76607;DHT22;65498;50.916;4.698;2023-05-10T12:44:16;21.80;61.20
76607;DHT22;65498;50.916;4.698;2023-05-10T12:46:47;21.80;61.50
76607;DHT22;65498;50.916;4.698;2023-05-10T12:49:16;21.90;61.30
76607;DHT22;65498;50.916;4.698;2023-05-10T12:51:46;21.80;61.40
76607;DHT22;65498;50.916;4.698;2023-05-10T12:54:15;21.80;61.20
76607;DHT22;65498;50.916;4.698;2023-05-10T12:56:44;21.80;61.30
76607;DHT22;65498;50.916;4.698;2023-05-10T12:59:12;21.90;61.50
76607;DHT22;65498;50.916;4.698;2023-05-10T13:01:40;21.80;61.40
76607;DHT22;65498;50.916;4.698;2023-05-10T13:04:08;21.80;61.50
76607;DHT22;65498;50.916;4.698;2023-05-10T13:06:36;21.90;61.60
76607;DHT22;65498;50.916;4.698;2023-05-10T13:09:04;21.80;61.70
76607;DHT22;65498;50.916;4.698;2023-05-10T13:11:32;21.80;62.40
76607;DHT22;65498;50.916;4.698;2023-05-10T13:14:00;21.80;61.80
76607;DHT22;65498;50.916;4.698;2023-05-10T13:16:35;21.80;61.90
76607;DHT22;65498;50.916;4.698;2023-05-10T13:19:02;21.90;61.80
76607;DHT22;65498;50.916;4.698;2023-05-10T13:21:30;21.90;61.80
76607;DHT22;65498;50.916;4.698;2023-05-10T13:23:57;21.90;61.90
76607;DHT22;65498;50.916;4.698;2023-05-10T13:26:25;21.90;62.00
76607;DHT22;65498;50.916;4.698;2023-05-10T13:28:52;21.90;62.10
76607;DHT22;65498;50.916;4.698;2023-05-10T13:31:22;21.90;62.10
76607;DHT22;65498;50.916;4.698;2023-05-10T13:33:49;21.90;62.70
76607;DHT22;65498;50.916;4.698;2023-05-10T13:36:17;21.90;62.10
76607;DHT22;65498;50.916;4.698;2023-05-10T13:38:44;21.90;62.20
76607;DHT22;65498;50.916;4.698;2023-05-10T13:41:12;21.90;62.10
76607;DHT22;65498;50.916;4.698;2023-05-10T13:43:40;22.00;62.10
76607;DHT22;65498;50.916;4.698;2023-05-10T13:46:07;21.90;62.50
76607;DHT22;65498;50.916;4.698;2023-05-10T13:48:35;21.90;62.40
76607;DHT22;65498;50.916;4.698;2023-05-10T13:51:05;21.90;62.40
76607;DHT22;65498;50.916;4.698;2023-05-10T13:53:32;21.90;62.30
76607;DHT22;65498;50.916;4.698;2023-05-10T13:56:00;21.90;62.00
76607;DHT22;65498;50.916;4.698;2023-05-10T13:58:29;21.90;62.10
76607;DHT22;65498;50.916;4.698;2023-05-10T14:00:56;21.90;62.20
76607;DHT22;65498;50.916;4.698;2023-05-10T14:03:24;21.90;62.10
76607;DHT22;65498;50.916;4.698;2023-05-10T14:05:51;21.90;62.10
76607;DHT22;65498;50.916;4.698;2023-05-10T14:08:19;21.90;62.00
76607;DHT22;65498;50.916;4.698;2023-05-10T14:10:47;21.90;62.10
76607;DHT22;65498;50.916;4.698;2023-05-10T14:13:15;21.90;62.00
76607;DHT22;65498;50.916;4.698;2023-05-10T14:15:42;21.90;62.00
76607;DHT22;65498;50.916;4.698;2023-05-10T14:18:10;21.90;62.00
76607;DHT22;65498;50.916;4.698;2023-05-10T14:20:38;21.90;62.00
76607;DHT22;65498;50.916;4.698;2023-05-10T14:23:05;21.90;62.00
76607;DHT22;65498;50.916;4.698;2023-05-10T14:25:33;21.90;62.00
76607;DHT22;65498;50.916;4.698;2023-05-10T14:28:01;21.90;61.90
76607;DHT22;65498;50.916;4.698;2023-05-10T14:30:29;21.90;62.00
76607;DHT22;65498;50.916;4.698;2023-05-10T14:32:57;21.90;62.00
76607;DHT22;65498;50.916;4.698;2023-05-10T14:35:24;21.90;61.90
76607;DHT22;65498;50.916;4.698;2023-05-10T14:37:52;21.90;61.90
76607;DHT22;65498;50.916;4.698;2023-05-10T14:40:20;21.90;61.90
76607;DHT22;65498;50.916;4.698;2023-05-10T14:42:47;21.90;61.90
76607;DHT22;65498;50.916;4.698;2023-05-10T14:45:15;21.90;61.80
76607;DHT22;65498;50.916;4.698;2023-05-10T14:47:42;21.90;62.00
76607;DHT22;65498;50.916;4.698;2023-05-10T14:50:10;21.80;61.90
76607;DHT22;65498;50.916;4.698;2023-05-10T14:52:38;21.90;61.90
76607;DHT22;65498;50.916;4.698;2023-05-10T14:55:06;21.90;62.30
76607;DHT22;65498;50.916;4.698;2023-05-10T14:57:34;21.80;62.40
76607;DHT22;65498;50.916;4.698;2023-05-10T15:00:02;21.90;61.80
76607;DHT22;65498;50.916;4.698;2023-05-10T15:02:31;21.80;63.00
76607;DHT22;65498;50.916;4.698;2023-05-10T15:04:58;21.80;61.90
76607;DHT22;65498;50.916;4.698;2023-05-10T15:07:26;21.80;61.70
76607;DHT22;65498;50.916;4.698;2023-05-10T15:09:53;21.80;62.00
76607;DHT22;65498;50.916;4.698;2023-05-10T15:12:21;21.90;61.50
76607;DHT22;65498;50.916;4.698;2023-05-10T15:14:48;21.90;62.40
76607;DHT22;65498;50.916;4.698;2023-05-10T15:17:16;21.80;61.80
76607;DHT22;65498;50.916;4.698;2023-05-10T15:19:44;21.90;61.30
76607;DHT22;65498;50.916;4.698;2023-05-10T15:22:11;21.80;61.80
76607;DHT22;65498;50.916;4.698;2023-05-10T15:24:39;21.90;62.20
76607;DHT22;65498;50.916;4.698;2023-05-10T15:27:06;21.90;61.70
76607;DHT22;65498;50.916;4.698;2023-05-10T15:29:34;21.90;61.80
76607;DHT22;65498;50.916;4.698;2023-05-10T15:32:02;21.90;62.00
76607;DHT22;65498;50.916;4.698;2023-05-10T15:34:29;21.90;62.00
76607;DHT22;65498;50.916;4.698;2023-05-10T15:36:57;21.90;61.80
76607;DHT22;65498;50.916;4.698;2023-05-10T15:39:25;21.90;61.90
76607;DHT22;65498;50.916;4.698;2023-05-10T15:41:52;21.90;62.30
76607;DHT22;65498;50.916;4.698;2023-05-10T15:44:20;21.90;62.40
76607;DHT22;65498;50.916;4.698;2023-05-10T15:46:48;21.90;61.80
76607;DHT22;65498;50.916;4.698;2023-05-10T15:49:15;21.90;61.80
76607;DHT22;65498;50.916;4.698;2023-05-10T15:51:43;21.90;62.60
76607;DHT22;65498;50.916;4.698;2023-05-10T15:54:11;21.90;61.90
76607;DHT22;65498;50.916;4.698;2023-05-10T15:56:38;21.90;62.20
76607;DHT22;65498;50.916;4.698;2023-05-10T15:59:06;22.00;62.40